ご夫婦で!!

LUXURY FLIGHT

03-6423-7371

羽田本店:東京都大田区羽田5-11-1
営業時間:10:00~20:00
定休日:毎週 月曜日
セントレア店:愛知県常滑市セントレア1-1
営業時間:10:00~20:00 年中無休

lv

ご夫婦で!!

STAFF BLOG

2019/06/04 ご夫婦で!!

昼下がりの羽田からこんちわっス

 

RJTT 040430Z 18011KT 9999 FEW030 BKN/// 27/18 Q1011 NOSIG

 

 

 

本日は747をご夫妻で体験されたこちらのお客様

 

img_1553

 

 

奥様の4本線がとてもお似合いです

 

羽田→成田便の機長として初めての操縦の中果敢にマニュアルコントロールをしていただきましたーーー

 

重い操縦桿を器用にコントロールされている姿がとても印象的

 

ご主人様は日本人なら誰もが知っている自動車メーカーに勤務されていて、

新型車の開発等にも関わっていらっしゃるとの事。

 

言うまでもなく、ナイスな操縦&ランディングでございました

 

 

今回はあっと言う間に終了してしまいましたので、

是非次回は大阪くらいまで空のドライブはいかがでしょうかーーー??

 

 

この度はご来店誠にありがとうございました。

またのご来店を心よりお待ちいたしております。

 

 

「感謝」

 

 

 

 

 

 

 

 

TOP